Time;durP1;ratioP1;P1;durP2;ratioP2;P2;SDS_P1;SDS_P2;PMS_P1;PMS_P2;Temp;Humidity;BMP_temperature;BMP_pressure;BME280_temperature;BME280_humidity;BME280_pressure;Samples;Min_cycle;Max_cycle;Signal;HPM_P1;HPM_P2
2022/01/21 00:01:58;;;;;;;45.83;14.20;;;;;;;28.72;58.43;101077.78;5077429;27;70261;-41
2022/01/21 00:04:29;;;;;;;29.70;14.18;;;;;;;28.76;59.09;101084.47;5080103;27;66143;-40
2022/01/21 00:06:59;;;;;;;21.27;13.75;;;;;;;28.79;58.97;101086.78;5075633;27;70411;-39
2022/01/21 00:09:29;;;;;;;26.15;14.05;;;;;;;28.82;59.24;101099.03;5081363;27;66213;-40
2022/01/21 00:12:00;;;;;;;33.10;15.45;;;;;;;28.85;59.18;101110.25;5082155;27;70626;-40
2022/01/21 00:14:30;;;;;;;32.92;15.88;;;;;;;28.85;59.69;101110.25;5076812;27;65563;-42
2022/01/21 00:17:01;;;;;;;31.92;15.38;;;;;;;28.81;59.99;101102.78;5062550;28;70081;-39
2022/01/21 00:19:38;;;;;;;41.22;16.58;;;;;;;28.86;59.71;101111.94;5075105;27;66472;-39
2022/01/21 00:30:38;;;;;;;30.65;14.85;;;;;;;28.92;60.15;101127.34;5078078;27;66048;-40
2022/01/21 00:33:08;;;;;;;26.85;15.20;;;;;;;28.99;59.95;101131.94;5076343;27;69629;-40
2022/01/21 00:35:38;;;;;;;17.33;13.00;;;;;;;29.00;59.39;101133.56;5075238;27;66084;-39
2022/01/21 00:38:09;;;;;;;24.17;14.25;;;;;;;29.00;59.40;101138.97;5078725;27;70216;-39
2022/01/21 00:40:39;;;;;;;25.30;13.45;;;;;;;28.99;59.53;101134.63;5081331;27;66123;-41
2022/01/21 00:43:19;;;;;;;21.67;14.23;;;;;;;29.05;59.18;101144.66;5081331;27;69998;-41
2022/01/21 00:45:50;;;;;;;17.55;12.15;;;;;;;29.06;59.44;101149.00;5072466;27;65715;-44
2022/01/21 00:48:21;;;;;;;17.40;12.60;;;;;;;29.05;59.15;101150.03;5073236;27;71264;-40
2022/01/21 00:50:51;;;;;;;17.48;12.70;;;;;;;29.09;59.30;101151.31;5077848;27;66220;-40
2022/01/21 00:53:22;;;;;;;19.33;12.30;;;;;;;29.04;58.84;101145.69;5079939;27;69131;-40
2022/01/21 00:55:53;;;;;;;16.60;12.30;;;;;;;29.10;58.53;101161.91;5079526;27;65932;-40
2022/01/21 00:58:23;;;;;;;19.50;12.95;;;;;;;29.05;58.84;101147.34;5043714;28;69240;-40
2022/01/21 01:00:53;;;;;;;14.40;11.98;;;;;;;29.10;58.45;101155.69;5077613;27;66499;-40
2022/01/21 01:03:24;;;;;;;13.77;11.98;;;;;;;29.10;58.55;101161.09;5078874;27;70147;-40
2022/01/21 01:05:56;;;;;;;16.67;13.15;;;;;;;29.13;58.70;101166.09;5074550;27;65406;-40
2022/01/21 01:08:26;;;;;;;12.75;11.63;;;;;;;29.11;58.13;101165.44;5076478;27;70573;-40
2022/01/21 01:11:17;;;;;;;15.10;12.05;;;;;;;29.14;58.21;101179.41;5058985;28;65364;-39
2022/01/21 01:22:15;;;;;;;20.67;12.50;;;;;;;29.08;58.47;101177.47;5075106;27;65867;-42
2022/01/21 01:30:07;;;;;;;15.50;12.57;;;;;;;29.22;57.78;101212.66;5076268;27;70150;-39
2022/01/21 01:32:38;;;;;;;18.45;13.13;;;;;;;29.19;57.89;101203.09;5080303;27;66442;-40
2022/01/21 01:35:11;;;;;;;20.98;14.88;;;;;;;29.03;58.34;101176.38;5062168;28;70306;-40
2022/01/21 01:40:53;;;;;;;17.60;13.45;;;;;;;29.11;58.32;101211.38;5082523;27;70046;-41
2022/01/21 01:51:42;;;;;;;18.15;13.07;;;;;;;29.25;57.48;101202.28;5078840;27;69218;-40
2022/01/21 01:54:15;;;;;;;19.70;13.52;;;;;;;29.30;57.79;101205.22;5079287;27;66984;-41
2022/01/21 01:56:53;;;;;;;17.33;13.40;;;;;;;29.32;57.84;101211.25;5079331;27;70463;-39
2022/01/21 01:59:24;;;;;;;18.70;13.65;;;;;;;29.30;57.69;101199.81;5069877;27;65177;-39
2022/01/21 02:01:59;;;;;;;15.25;13.23;;;;;;;29.34;57.25;101198.38;5082042;27;69707;-40
2022/01/21 02:04:30;;;;;;;17.15;13.35;;;;;;;29.32;57.58;101189.63;5078500;27;65371;-40
2022/01/21 02:07:00;;;;;;;14.68;13.18;;;;;;;29.34;57.53;101198.38;5077978;27;70575;-39
2022/01/21 02:09:32;;;;;;;19.05;12.60;;;;;;;29.36;57.47;101201.72;5073906;28;66359;-41
2022/01/21 02:12:04;;;;;;;14.02;12.57;;;;;;;29.33;57.43;101194.00;5069577;27;69564;-40
2022/01/21 02:14:37;;;;;;;;;;;;;;;29.05;58.09;101195.97;5078560;28;66507;-39
2022/01/21 02:17:19;;;;;;;18.45;13.32;;;;;;;29.36;57.49;101195.47;5075461;27;70361;-40
2022/01/21 02:22:56;;;;;;;14.43;13.07;;;;;;;29.41;56.79;101195.69;5076708;27;70361;-40
2022/01/21 02:25:26;;;;;;;15.40;13.50;;;;;;;29.40;56.89;101205.69;5078254;27;66029;-40
2022/01/21 02:28:14;;;;;;;16.65;13.10;;;;;;;29.44;57.34;101205.28;5073954;27;70009;-41
2022/01/21 02:30:55;;;;;;;16.70;13.82;;;;;;;29.44;56.87;101202.56;5079223;27;65646;-40
2022/01/21 02:33:27;;;;;;;15.15;13.45;;;;;;;29.33;56.65;101174.25;5062623;28;69109;-40
2022/01/21 02:35:59;;;;;;;13.88;12.38;;;;;;;29.49;57.11;101192.81;5075175;27;66032;-41
2022/01/21 02:38:30;;;;;;;17.70;14.10;;;;;;;29.50;56.50;101194.47;5081362;27;70054;-40
2022/01/21 02:41:00;;;;;;;16.83;14.27;;;;;;;29.54;56.62;101194.91;5078802;27;65417;-41
2022/01/21 02:43:30;;;;;;;16.15;14.38;;;;;;;29.51;56.48;101189.91;5065624;28;69190;-40
2022/01/21 02:46:06;;;;;;;15.27;13.68;;;;;;;29.55;56.70;101196.56;5085550;27;66287;-40
2022/01/21 02:48:38;;;;;;;17.00;13.27;;;;;;;29.59;56.46;101192.44;5080676;27;70420;-40
2022/01/21 02:51:13;;;;;;;17.63;14.35;;;;;;;29.60;56.80;101199.50;5081117;27;66053;-39
2022/01/21 02:56:22;;;;;;;15.13;13.43;;;;;;;29.63;56.78;101193.72;5073143;27;65569;-40
2022/01/21 02:58:52;;;;;;;15.13;13.55;;;;;;;29.56;56.67;101180.16;5082369;27;70039;-40
2022/01/21 03:01:25;;;;;;;15.38;13.77;;;;;;;29.66;56.67;101187.91;5078576;27;66985;-40
2022/01/21 03:03:55;;;;;;;15.93;13.23;;;;;;;29.67;56.41;101181.47;5080169;27;69908;-39
2022/01/21 03:06:27;;;;;;;14.90;13.45;;;;;;;29.67;56.20;101178.75;5082505;27;65685;-39
2022/01/21 03:08:58;;;;;;;15.85;12.77;;;;;;;29.54;56.51;101138.16;5078319;27;70153;-40
2022/01/21 03:11:29;;;;;;;16.30;14.10;;;;;;;29.73;56.41;101172.53;5074530;27;66133;-40
2022/01/21 03:14:00;;;;;;;16.17;13.10;;;;;;;29.76;56.32;101166.72;5048516;28;69956;-40
2022/01/21 03:16:31;;;;;;;18.33;15.13;;;;;;;29.73;55.91;101167.13;5071354;27;66423;-39
2022/01/21 03:19:01;;;;;;;14.75;13.32;;;;;;;29.77;56.05;101167.53;5073538;27;69242;-40
2022/01/21 03:21:32;;;;;;;19.98;14.85;;;;;;;29.80;56.17;101162.53;5074710;27;66157;-40
2022/01/21 03:24:02;;;;;;;17.75;15.23;;;;;;;29.84;55.75;101174.63;5081767;27;71042;-39
2022/01/21 03:26:33;;;;;;;16.08;14.40;;;;;;;29.87;55.82;101167.16;5081973;27;65641;-40
2022/01/21 03:29:05;;;;;;;18.73;15.65;;;;;;;29.87;56.07;101162.56;5082879;27;70135;-40
2022/01/21 03:31:40;;;;;;;16.73;14.82;;;;;;;29.88;55.69;101152.56;5079615;27;66758;-39
2022/01/21 03:34:11;;;;;;;17.15;14.48;;;;;;;29.91;56.05;101154.84;5078198;27;71089;-39
2022/01/21 03:36:42;;;;;;;16.95;15.13;;;;;;;29.95;55.35;101153.38;5079194;27;65382;-39
2022/01/21 03:39:13;;;;;;;16.47;14.83;;;;;;;29.96;55.92;101153.19;5084468;27;70325;-39
2022/01/21 03:41:43;;;;;;;14.93;13.50;;;;;;;29.97;55.64;101151.31;5079323;27;66793;-39
2022/01/21 03:44:15;;;;;;;16.88;14.75;;;;;;;29.99;55.13;101138.44;5066410;27;69248;-39
2022/01/21 03:46:47;;;;;;;18.83;16.15;;;;;;;30.03;55.33;101145.06;5081893;27;66656;-40
2022/01/21 03:49:18;;;;;;;19.70;15.27;;;;;;;30.05;55.19;101133.00;5063934;27;69139;-39
2022/01/21 03:51:49;;;;;;;16.20;14.48;;;;;;;30.08;55.51;101137.16;5077583;27;66206;-39
2022/01/21 03:54:20;;;;;;;16.33;14.82;;;;;;;30.11;55.04;101125.94;5065494;27;69715;-40
2022/01/21 03:56:50;;;;;;;16.15;14.63;;;;;;;30.15;54.96;101132.59;5073529;27;66729;-40
2022/01/21 03:59:20;;;;;;;17.35;15.40;;;;;;;30.16;54.86;101123.44;5085029;27;70169;-40
2022/01/21 04:01:51;;;;;;;17.55;15.05;;;;;;;30.19;55.25;101123.00;5070059;27;66799;-39
2022/01/21 04:04:21;;;;;;;19.45;17.27;;;;;;;30.21;54.81;101126.34;5071743;27;69580;-41
2022/01/21 04:06:52;;;;;;;16.40;14.85;;;;;;;30.21;54.91;101115.50;5078265;27;65764;-41
2022/01/21 04:09:24;;;;;;;19.30;16.27;;;;;;;30.20;54.89;101113.88;5082144;27;70099;-40
2022/01/21 04:11:55;;;;;;;16.73;15.00;;;;;;;30.26;54.49;101118.47;5079012;27;66528;-40
2022/01/21 04:14:25;;;;;;;18.75;15.90;;;;;;;30.31;55.18;101108.88;5078354;27;69534;-40
2022/01/21 04:16:56;;;;;;;17.70;15.90;;;;;;;30.31;54.53;101103.44;5078240;27;65558;-40
2022/01/21 04:19:26;;;;;;;17.95;16.05;;;;;;;30.36;54.67;101103.66;5078512;27;70121;-41
2022/01/21 04:21:58;;;;;;;23.48;17.40;;;;;;;30.37;54.78;101083.66;5068407;27;65139;-42
2022/01/21 04:24:30;;;;;;;18.00;16.10;;;;;;;30.40;54.60;101091.38;5083580;27;69858;-39
2022/01/21 04:27:00;;;;;;;18.75;16.75;;;;;;;30.43;54.27;101086.38;5071828;27;65582;-40
2022/01/21 04:29:31;;;;;;;21.02;17.00;;;;;;;30.45;54.20;101075.31;5074827;27;70167;-42
2022/01/21 04:32:04;;;;;;;19.58;17.50;;;;;;;30.46;54.30;101074.28;5077904;27;66323;-39
2022/01/21 04:34:36;;;;;;;;;;;;;;;30.23;54.61;101074.75;5073931;27;70436;-41
2022/01/21 04:37:10;;;;;;;16.83;14.98;;;;;;;30.49;54.54;101063.03;5074325;28;66462;-40
2022/01/21 04:40:04;;;;;;;21.77;16.92;;;;;;;30.52;54.62;101059.06;5060051;28;69728;-40
2022/01/21 04:48:17;;;;;;;20.88;18.13;;;;;;;30.58;54.30;101055.50;5089281;27;65616;-41
2022/01/21 04:50:57;;;;;;;24.90;18.63;;;;;;;30.58;54.18;101045.50;5077534;27;70230;-41
2022/01/21 04:53:32;;;;;;;21.42;18.30;;;;;;;30.61;53.88;101047.75;5065988;28;66444;-39
2022/01/21 04:56:18;;;;;;;23.08;17.63;;;;;;;30.64;53.76;101044.63;5069535;27;69563;-39
2022/01/21 04:58:49;;;;;;;21.73;19.42;;;;;;;30.66;53.89;101039.84;5072997;27;65386;-40
2022/01/21 05:01:19;;;;;;;19.98;17.85;;;;;;;30.67;53.67;101032.53;5071564;27;69391;-39
2022/01/21 05:03:51;;;;;;;25.02;17.83;;;;;;;30.67;53.72;101033.41;5076713;27;65119;-47
2022/01/21 05:06:21;;;;;;;25.65;19.27;;;;;;;30.71;53.65;101034.59;5076771;27;70231;-40
2022/01/21 05:08:54;;;;;;;19.95;17.52;;;;;;;30.71;54.14;101021.06;5060493;28;66427;-40
2022/01/21 05:11:27;;;;;;;23.65;18.85;;;;;;;30.72;53.83;101014.59;5077789;27;69300;-40
2022/01/21 05:14:09;;;;;;;20.05;17.88;;;;;;;30.75;53.89;101009.81;5079352;27;66383;-41
2022/01/21 05:16:47;;;;;;;23.23;18.05;;;;;;;30.76;54.10;101011.44;5084791;27;69820;-41
2022/01/21 05:19:19;;;;;;;19.45;17.38;;;;;;;30.58;53.86;100964.28;5081650;27;65997;-41
2022/01/21 05:22:08;;;;;;;24.48;17.42;;;;;;;30.79;53.42;100990.22;5077067;27;70051;-41
2022/01/21 05:24:44;;;;;;;25.90;18.60;;;;;;;30.81;53.94;100990.81;5072938;27;66439;-40
2022/01/21 05:27:15;;;;;;;19.92;17.77;;;;;;;30.83;53.54;100982.50;5078653;27;69814;-40
2022/01/21 05:29:49;;;;;;;21.30;17.52;;;;;;;30.84;53.63;100976.03;5075687;27;66740;-39
2022/01/21 05:32:35;;;;;;;22.33;18.00;;;;;;;30.85;53.59;100961.44;5045313;28;69936;-40
2022/01/21 05:35:08;;;;;;;21.30;17.55;;;;;;;30.87;53.64;100962.03;5077408;27;66154;-39
2022/01/21 05:37:55;;;;;;;20.83;18.63;;;;;;;30.87;53.25;100957.47;5047437;28;70241;-40
2022/01/21 05:40:46;;;;;;;24.30;19.42;;;;;;;30.88;53.44;100952.88;5078319;27;66474;-41
2022/01/21 05:43:38;;;;;;;19.55;17.50;;;;;;;30.90;53.17;100945.38;5075382;27;70707;-41
2022/01/21 05:49:38;;;;;;;18.80;16.80;;;;;;;30.94;53.25;100938.47;5076797;27;69226;-41
2022/01/21 05:52:38;;;;;;;21.52;18.13;;;;;;;30.92;53.56;100932.44;5076999;27;65943;-40
2022/01/21 05:55:40;;;;;;;19.27;16.75;;;;;;;30.97;53.52;100929.91;5076509;27;69613;-40
2022/01/21 05:58:33;;;;;;;24.40;18.38;;;;;;;30.98;53.25;100920.75;5067205;27;65474;-40
2022/01/21 06:01:04;;;;;;;19.25;17.17;;;;;;;31.02;53.45;100916.53;5080225;27;70500;-39
2022/01/21 06:03:36;;;;;;;19.90;17.90;;;;;;;31.01;53.25;100904.03;5077663;27;65587;-39
2022/01/21 06:06:06;;;;;;;19.00;16.95;;;;;;;31.04;53.44;100909.00;5077871;27;70552;-39
2022/01/21 06:08:38;;;;;;;19.50;17.42;;;;;;;31.07;53.17;100897.72;5077668;27;65614;-39
2022/01/21 06:11:10;;;;;;;20.20;16.67;;;;;;;31.05;53.38;100882.75;5076952;27;70247;-40
2022/01/21 06:13:40;;;;;;;18.70;16.85;;;;;;;31.06;53.35;100879.78;5080798;27;65994;-40
2022/01/21 06:16:10;;;;;;;18.88;16.90;;;;;;;31.11;53.47;100882.69;5079391;27;70290;-40
2022/01/21 06:18:41;;;;;;;20.00;16.50;;;;;;;31.14;53.30;100876.81;5083441;27;66524;-42
2022/01/21 06:21:11;;;;;;;19.48;17.17;;;;;;;31.15;53.11;100867.66;5080976;27;71045;-39
2022/01/21 06:23:41;;;;;;;20.58;18.42;;;;;;;31.13;53.11;100858.91;5081962;27;66132;-39
2022/01/21 06:26:12;;;;;;;19.98;17.85;;;;;;;31.20;53.17;100863.44;5082172;27;70153;-39
2022/01/21 06:28:42;;;;;;;21.73;17.60;;;;;;;31.20;52.90;100858.00;5075566;27;65424;-39
2022/01/21 06:31:12;;;;;;;19.55;17.48;;;;;;;31.18;53.27;100850.13;5080513;27;69960;-39
2022/01/21 06:33:43;;;;;;;22.30;18.02;;;;;;;31.22;52.90;100855.91;5076167;27;65783;-40
2022/01/21 06:36:13;;;;;;;21.25;17.17;;;;;;;31.24;53.21;100846.50;5086903;27;69810;-39
2022/01/21 06:38:44;;;;;;;21.00;17.05;;;;;;;31.20;52.90;100826.31;5081009;27;65535;-40
2022/01/21 06:41:14;;;;;;;23.73;18.52;;;;;;;31.22;52.76;100812.56;5081487;27;69384;-41
2022/01/21 06:43:46;;;;;;;22.00;18.17;;;;;;;31.27;53.19;100821.66;5080940;27;66216;-40
2022/01/21 06:46:16;;;;;;;21.48;18.40;;;;;;;31.29;52.84;100825.00;5059967;27;69495;-39
2022/01/21 06:48:47;;;;;;;18.40;16.58;;;;;;;31.30;52.49;100814.97;5083778;27;65498;-40
2022/01/21 06:51:17;;;;;;;21.60;17.48;;;;;;;31.30;52.95;100809.56;5082946;27;69705;-39
2022/01/21 06:53:47;;;;;;;22.73;18.05;;;;;;;31.33;52.76;100806.38;5068264;28;66661;-39
2022/01/21 06:56:18;;;;;;;18.80;16.85;;;;;;;31.33;52.47;100800.97;5076651;27;69614;-39
2022/01/21 06:58:48;;;;;;;18.83;16.90;;;;;;;31.34;52.59;100797.19;5083074;27;65820;-39
2022/01/21 07:01:18;;;;;;;20.42;18.15;;;;;;;31.35;52.70;100786.13;5080499;27;70131;-40
2022/01/21 07:03:49;;;;;;;19.77;17.83;;;;;;;31.35;52.78;100790.75;5083782;27;66370;-40
2022/01/21 07:06:19;;;;;;;18.05;16.17;;;;;;;31.36;52.33;100781.56;5081856;27;70250;-42
2022/01/21 07:08:49;;;;;;;20.77;17.52;;;;;;;31.38;52.45;100779.47;5081334;27;66265;-43
2022/01/21 07:11:21;;;;;;;19.13;17.17;;;;;;;31.37;53.01;100777.78;5071763;27;70205;-39
2022/01/21 07:13:51;;;;;;;23.60;17.35;;;;;;;31.38;52.90;100774.06;5081639;27;66259;-40
2022/01/21 07:16:21;;;;;;;19.52;16.67;;;;;;;31.41;52.87;100756.50;5074314;27;69894;-39
2022/01/21 07:18:52;;;;;;;19.50;17.42;;;;;;;31.41;52.78;100768.16;5072821;27;65399;-40
2022/01/21 07:21:22;;;;;;;18.70;16.67;;;;;;;31.37;52.53;100756.97;5080856;27;70228;-40
2022/01/21 07:23:52;;;;;;;19.90;17.35;;;;;;;31.38;52.59;100757.78;5082309;27;66041;-41
2022/01/21 07:26:22;;;;;;;20.23;17.55;;;;;;;31.42;52.57;100753.56;5093555;27;70170;-40
2022/01/21 07:28:53;;;;;;;19.25;17.15;;;;;;;31.45;52.69;100760.41;5084432;27;66342;-39
2022/01/21 07:31:23;;;;;;;21.50;18.10;;;;;;;31.48;52.32;100757.25;5079015;27;70064;-39
2022/01/21 07:33:53;;;;;;;18.67;16.90;;;;;;;31.47;52.43;100751.00;5085706;27;66092;-39
2022/01/21 07:36:24;;;;;;;19.15;17.13;;;;;;;31.50;52.23;100750.53;5075793;27;69719;-39
2022/01/21 07:38:54;;;;;;;18.92;16.92;;;;;;;31.47;52.63;100745.56;5085175;27;66324;-40
2022/01/21 07:41:24;;;;;;;19.40;17.40;;;;;;;31.52;52.57;100744.91;5085595;27;70392;-39
2022/01/21 07:43:55;;;;;;;24.65;17.92;;;;;;;31.51;52.66;100735.94;5082189;27;65380;-39
2022/01/21 07:46:26;;;;;;;23.15;16.85;;;;;;;31.43;52.51;100722.69;5082126;27;69300;-39
2022/01/21 07:48:58;;;;;;;20.67;16.73;;;;;;;31.48;52.67;100730.97;5087857;27;65435;-39
2022/01/21 07:51:28;;;;;;;21.95;17.30;;;;;;;31.53;52.44;100733.00;5074224;27;70425;-39
2022/01/21 07:53:58;;;;;;;20.92;18.30;;;;;;;31.53;52.54;100722.97;5082543;27;65856;-39
2022/01/21 07:56:29;;;;;;;19.52;17.20;;;;;;;31.57;52.61;100735.03;5080996;27;69434;-40
2022/01/21 07:59:01;;;;;;;19.40;17.48;;;;;;;31.58;52.30;100736.66;5079760;27;66154;-41
2022/01/21 08:01:32;;;;;;;18.83;17.13;;;;;;;31.58;52.57;100735.84;5077517;27;69972;-40
2022/01/21 08:04:03;;;;;;;19.85;17.77;;;;;;;31.57;52.03;100729.59;5073912;27;66293;-39
2022/01/21 08:06:34;;;;;;;19.20;17.25;;;;;;;31.44;52.20;100702.66;5080446;27;70496;-39
2022/01/21 08:09:05;;;;;;;26.47;18.67;;;;;;;31.52;52.37;100712.38;5080529;27;66367;-40
2022/01/21 08:11:36;;;;;;;21.27;18.23;;;;;;;31.56;52.02;100722.50;5081607;27;70213;-40
2022/01/21 08:14:06;;;;;;;18.95;17.05;;;;;;;31.60;52.50;100728.31;5076087;27;65941;-39
2022/01/21 08:16:41;;;;;;;23.45;19.00;;;;;;;31.61;52.20;100724.53;5078555;27;70497;-40
2022/01/21 08:19:13;;;;;;;22.38;17.92;;;;;;;31.60;52.18;100722.91;5076588;27;65513;-41
2022/01/21 08:21:43;;;;;;;21.35;19.00;;;;;;;31.60;52.34;100729.16;5057147;28;69057;-41
2022/01/21 08:24:13;;;;;;;21.08;18.63;;;;;;;31.59;52.29;100724.78;5081209;27;65414;-39
2022/01/21 08:26:44;;;;;;;23.52;19.52;;;;;;;31.62;52.03;100720.75;5079463;27;69788;-40
2022/01/21 08:29:14;;;;;;;22.92;18.98;;;;;;;31.63;52.11;100721.63;5080064;27;66331;-39
2022/01/21 08:31:45;;;;;;;24.60;18.85;;;;;;;31.64;52.34;100723.25;5080390;27;70144;-39
2022/01/21 08:34:15;;;;;;;20.73;18.58;;;;;;;31.64;52.24;100715.94;5078506;27;65783;-39
2022/01/21 08:36:46;;;;;;;24.95;19.45;;;;;;;31.63;52.33;100705.34;5074106;27;70056;-41
2022/01/21 08:39:16;;;;;;;25.60;18.77;;;;;;;31.68;52.34;100719.88;5078779;27;65345;-40
2022/01/21 08:41:47;;;;;;;23.15;20.15;;;;;;;31.66;52.43;100710.31;5078878;27;70029;-40
2022/01/21 08:44:17;;;;;;;26.00;19.33;;;;;;;31.66;52.26;100721.16;5076664;27;66544;-41
2022/01/21 08:46:48;;;;;;;23.88;19.15;;;;;;;31.69;52.07;100715.25;5078866;28;70514;-41
2022/01/21 08:49:38;;;;;;;20.73;18.67;;;;;;;31.74;52.16;100718.13;5078554;27;65948;-40
2022/01/21 08:52:18;;;;;;;24.20;20.23;;;;;;;31.76;51.86;100715.97;5080185;27;69690;-40
2022/01/21 08:54:49;;;;;;;21.17;19.05;;;;;;;31.78;52.31;100713.88;5083805;27;66664;-40
2022/01/21 08:57:20;;;;;;;22.67;19.97;;;;;;;31.78;51.95;100713.88;5082115;27;69880;-40
2022/01/21 08:59:51;;;;;;;22.05;19.38;;;;;;;31.80;52.32;100711.78;5077434;27;65737;-40
2022/01/21 09:02:21;;;;;;;25.00;18.88;;;;;;;31.77;52.20;100712.22;5073284;27;70488;-41
2022/01/21 09:04:52;;;;;;;24.20;20.30;;;;;;;31.80;52.04;100711.78;5080784;27;65710;-40
2022/01/21 09:07:22;;;;;;;22.55;20.05;;;;;;;31.78;52.20;100720.13;5090681;27;69200;-40
2022/01/21 09:09:52;;;;;;;22.73;19.88;;;;;;;31.83;51.93;100717.56;5085494;27;65857;-40
2022/01/21 09:12:23;;;;;;;21.77;18.90;;;;;;;31.86;51.96;100731.72;5088491;27;70140;-40
2022/01/21 09:14:53;;;;;;;26.60;20.38;;;;;;;31.86;51.93;100727.13;5080388;27;66050;-40
2022/01/21 09:17:23;;;;;;;22.42;19.50;;;;;;;31.85;52.14;100725.47;5085966;27;70485;-40
2022/01/21 09:19:53;;;;;;;22.33;19.92;;;;;;;31.86;52.11;100732.53;5082352;27;66594;-41
2022/01/21 09:22:24;;;;;;;24.75;19.50;;;;;;;31.88;51.98;100738.56;5080554;27;69626;-38
2022/01/21 09:24:54;;;;;;;28.52;19.00;;;;;;;31.86;52.51;100742.56;5080235;27;66017;-40
2022/01/21 09:27:24;;;;;;;25.20;19.45;;;;;;;31.88;52.34;100743.16;5078653;27;70404;-39
2022/01/21 09:29:54;;;;;;;29.08;18.48;;;;;;;31.89;52.54;100742.94;5084537;27;65583;-40
2022/01/21 09:32:24;;;;;;;22.38;19.00;;;;;;;31.89;52.27;100742.09;5073223;27;70084;-40
2022/01/21 09:34:55;;;;;;;24.00;18.55;;;;;;;31.88;52.37;100744.00;5084379;27;66651;-40
2022/01/21 09:37:25;;;;;;;19.40;17.30;;;;;;;31.89;52.38;100742.09;5081095;27;71020;-40
2022/01/21 09:39:56;;;;;;;25.58;18.25;;;;;;;31.91;52.61;100751.69;5082320;27;66529;-39
2022/01/21 09:42:26;;;;;;;24.42;17.45;;;;;;;31.91;52.32;100756.28;5080904;27;69573;-39
2022/01/21 09:44:58;;;;;;;20.30;17.08;;;;;;;31.90;52.25;100766.31;5078124;27;65599;-39
2022/01/21 09:47:31;;;;;;;22.02;16.67;;;;;;;31.91;52.65;100761.69;5079958;27;70525;-39
2022/01/21 09:50:02;;;;;;;24.65;18.33;;;;;;;31.88;52.47;100767.59;5073199;27;65797;-40
2022/01/21 09:52:32;;;;;;;22.15;16.60;;;;;;;31.91;52.54;100767.97;5079013;27;69397;-39
2022/01/21 09:55:03;;;;;;;19.15;16.60;;;;;;;31.88;53.02;100771.13;5082540;27;66687;-40
2022/01/21 09:57:34;;;;;;;25.30;16.08;;;;;;;31.92;52.85;100782.38;5079146;27;70114;-41
2022/01/21 10:00:07;;;;;;;23.63;15.85;;;;;;;31.91;52.90;100781.53;5076978;27;65325;-40
2022/01/21 10:02:39;;;;;;;20.58;16.48;;;;;;;31.91;52.49;100778.81;5075225;27;69492;-39
2022/01/21 10:05:10;;;;;;;19.25;15.77;;;;;;;31.86;52.47;100775.94;5076951;27;66554;-40
2022/01/21 10:07:42;;;;;;;17.35;15.52;;;;;;;31.90;52.43;100788.00;5077062;27;69253;-40
2022/01/21 10:10:12;;;;;;;17.10;15.23;;;;;;;31.85;52.87;100770.75;5079455;27;65096;-39
2022/01/21 10:13:01;;;;;;;15.63;14.00;;;;;;;31.88;52.46;100783.88;5074157;27;70733;-39
2022/01/21 10:15:31;;;;;;;23.88;12.00;;;;;;;31.86;52.80;100796.81;5068202;28;66340;-40
2022/01/21 10:18:10;;;;;;;28.00;12.50;;;;;;;31.85;52.99;100779.72;5073726;28;69736;-39
2022/01/21 10:21:04;;;;;;;48.20;13.35;;;;;;;31.77;53.90;100777.31;5079609;27;66544;-42
2022/01/21 10:23:39;;;;;;;19.45;12.90;;;;;;;31.79;53.73;100788.78;5068736;27;70341;-40
2022/01/21 10:26:16;;;;;;;28.60;12.65;;;;;;;31.73;54.48;100792.38;5074289;27;66859;-40
2022/01/21 10:28:55;;;;;;;20.27;12.07;;;;;;;31.45;54.84;100763.94;5074478;27;70537;-40
2022/01/21 10:31:27;;;;;;;20.80;12.07;;;;;;;31.60;55.06;100802.34;5043979;28;66383;-41
2022/01/21 10:34:02;;;;;;;;;;;;;;;31.36;56.33;100797.84;5075224;27;69964;-40
2022/01/21 10:36:35;;;;;;;22.13;12.02;;;;;;;31.52;54.82;100802.66;5078527;27;66418;-40
2022/01/21 10:39:17;;;;;;;33.97;12.35;;;;;;;31.33;56.05;100771.16;5077190;27;70455;-39
2022/01/21 10:41:48;;;;;;;21.95;11.38;;;;;;;31.44;55.81;100802.97;5076435;27;66568;-39
2022/01/21 10:44:20;;;;;;;19.85;10.82;;;;;;;31.29;55.84;100764.53;5078077;27;70049;-41
2022/01/21 10:47:09;;;;;;;;;;;;;;;31.21;56.73;100802.78;5071776;27;66985;-40
2022/01/21 10:49:42;;;;;;;13.45;10.35;;;;;;;31.36;55.81;100804.06;5078370;27;70453;-40
2022/01/21 10:52:15;;;;;;;13.02;10.05;;;;;;;31.32;55.46;100802.84;5078210;27;66039;-41
2022/01/21 10:54:51;;;;;;;15.10;10.32;;;;;;;31.19;55.50;100786.72;5075945;27;69900;-40
2022/01/21 10:57:23;;;;;;;22.40;10.20;;;;;;;31.32;56.31;100815.59;5082987;27;65431;-41
2022/01/21 11:00:02;;;;;;;25.80;11.70;;;;;;;31.32;56.75;100815.59;5079251;27;70213;-41
2022/01/21 11:02:39;;;;;;;16.30;10.95;;;;;;;31.28;56.16;100822.50;5060404;27;66522;-41
2022/01/21 11:05:16;;;;;;;13.70;10.07;;;;;;;31.29;56.70;100822.28;5075871;27;70830;-41
2022/01/21 11:08:01;;;;;;;18.83;9.70;;;;;;;31.26;57.57;100835.44;5078816;27;65636;-40
2022/01/21 11:10:42;;;;;;;16.23;10.40;;;;;;;31.26;57.00;100830.00;5068506;27;70341;-40
2022/01/21 11:13:13;;;;;;;13.05;9.40;;;;;;;31.21;56.94;100827.16;5079096;27;66302;-40
2022/01/21 11:15:56;;;;;;;16.25;9.38;;;;;;;31.16;57.81;100836.78;5077277;27;70508;-40
2022/01/21 11:18:58;;;;;;;20.15;9.98;;;;;;;31.18;57.98;100839.28;5059180;28;65582;-41
2022/01/21 11:21:48;;;;;;;;;;;;;;;30.94;58.91;100849.06;5078557;27;70575;-41
2022/01/21 11:24:21;;;;;;;16.63;9.05;;;;;;;31.14;57.46;100859.72;5078338;27;66945;-40
2022/01/21 11:27:12;;;;;;;24.27;9.52;;;;;;;31.07;58.78;100859.81;5079660;27;70269;-40
2022/01/21 11:29:47;;;;;;;26.38;9.45;;;;;;;30.92;57.23;100840.34;5077278;27;65970;-43
2022/01/21 11:32:17;;;;;;;19.90;9.10;;;;;;;31.00;56.57;100859.03;5080064;27;69889;-41
2022/01/21 11:34:49;;;;;;;16.40;8.52;;;;;;;31.00;56.57;100861.72;5074825;27;66709;-41
2022/01/21 11:37:19;;;;;;;22.23;8.45;;;;;;;30.98;56.30;100866.56;5067611;27;71647;-41
2022/01/21 11:39:52;;;;;;;15.75;7.90;;;;;;;30.96;56.64;100868.66;5079670;27;66956;-42
2022/01/21 11:42:23;;;;;;;12.43;7.93;;;;;;;30.90;56.32;100864.13;5074502;27;69275;-43
2022/01/21 11:45:03;;;;;;;21.00;8.55;;;;;;;30.91;55.92;100871.19;5078729;27;66855;-41
2022/01/21 11:47:50;;;;;;;19.23;7.72;;;;;;;30.73;56.12;100842.16;5075416;27;69981;-42
2022/01/21 11:50:21;;;;;;;21.45;7.90;;;;;;;30.87;56.16;100859.13;5076936;27;65267;-43
2022/01/21 11:52:51;;;;;;;24.48;8.80;;;;;;;30.84;56.02;100871.25;5080716;27;69283;-42
2022/01/21 11:55:34;;;;;;;13.93;8.38;;;;;;;30.66;56.18;100853.00;5056947;28;66232;-42
2022/01/21 11:58:19;;;;;;;23.52;9.02;;;;;;;30.42;56.00;100830.28;5071165;27;70851;-41
2022/01/21 12:00:52;;;;;;;12.00;8.63;;;;;;;30.81;55.76;100892.50;5075172;27;65516;-42
2022/01/21 12:03:23;;;;;;;29.90;9.85;;;;;;;30.76;55.49;100895.88;5076366;27;69444;-41
2022/01/21 12:05:54;;;;;;;24.02;9.20;;;;;;;30.55;56.16;100861.84;5078521;27;66402;-41
2022/01/21 12:08:47;;;;;;;14.77;9.90;;;;;;;30.62;56.06;100889.72;5077846;27;69716;-41
2022/01/21 12:11:31;;;;;;;28.80;9.57;;;;;;;30.57;55.78;100886.81;5079315;27;65473;-42
2022/01/21 12:14:06;;;;;;;18.58;9.20;;;;;;;30.61;56.01;100885.31;5080288;27;70259;-41
2022/01/21 12:16:56;;;;;;;26.20;9.85;;;;;;;30.64;55.78;100909.25;5078071;27;66080;-41
2022/01/21 12:19:33;;;;;;;17.38;8.82;;;;;;;30.64;55.94;100914.66;5079697;27;70120;-41
2022/01/21 12:22:18;;;;;;;18.25;8.88;;;;;;;30.61;55.56;100914.28;5080030;27;66422;-41
2022/01/21 12:25:07;;;;;;;19.95;8.57;;;;;;;30.61;55.62;100925.94;5053818;28;69852;-40
2022/01/21 12:27:40;;;;;;;16.45;8.93;;;;;;;30.58;55.74;100925.53;5067636;27;66116;-43
2022/01/21 12:30:27;;;;;;;20.25;8.82;;;;;;;30.51;55.89;100941.84;5070901;27;69939;-41